Time;durP1;ratioP1;P1;durP2;ratioP2;P2;SDS_P1;SDS_P2;PMS_P1;PMS_P2;Temp;Humidity;BMP_temperature;BMP_pressure;BME280_temperature;BME280_humidity;BME280_pressure;Samples;Min_cycle;Max_cycle;Signal;HPM_P1;HPM_P2
2022/05/01 00:00:32;;;;;;;28.17;25.80;;;11.00;99.90;;;;;;5140118;27;20736;-86
2022/05/01 00:02:59;;;;;;;26.97;24.30;;;10.60;99.90;;;;;;5123533;27;20649;-86
2022/05/01 00:05:27;;;;;;;28.70;26.23;;;10.90;99.90;;;;;;5138393;27;21222;-86
2022/05/01 00:07:53;;;;;;;27.53;25.30;;;10.40;99.90;;;;;;5143845;27;20974;-87
2022/05/01 00:10:20;;;;;;;28.60;26.20;;;10.50;99.90;;;;;;5137242;27;20657;-86
2022/05/01 00:12:48;;;;;;;26.77;24.57;;;10.30;99.90;;;;;;5138932;27;20622;-86
2022/05/01 00:15:16;;;;;;;27.23;24.83;;;10.40;99.90;;;;;;5141472;27;20636;-86
2022/05/01 00:17:43;;;;;;;26.60;24.30;;;10.70;99.90;;;;;;5137699;27;21039;-86
2022/05/01 00:20:10;;;;;;;28.03;25.63;;;10.40;99.90;;;;;;5148624;27;20652;-86
2022/05/01 00:22:37;;;;;;;26.97;24.47;;;10.80;99.90;;;;;;5141274;27;20626;-86
2022/05/01 00:25:04;;;;;;;31.17;28.57;;;10.30;99.90;;;;;;5143662;27;20621;-86
2022/05/01 00:27:31;;;;;;;27.67;25.10;;;10.80;99.90;;;;;;5141433;27;20633;-86
2022/05/01 00:29:59;;;;;;;29.50;26.90;;;10.50;99.90;;;;;;5141283;27;20748;-85
2022/05/01 00:32:26;;;;;;;32.03;29.30;;;10.30;99.90;;;;;;5141199;27;21177;-86
2022/05/01 00:37:38;;;;;;;29.10;26.70;;;10.50;99.90;;;;;;5143755;27;20601;-86
2022/05/01 00:40:05;;;;;;;27.87;25.47;;;10.90;99.90;;;;;;5142495;27;20649;-85
2022/05/01 00:42:32;;;;;;;26.77;24.57;;;10.90;99.90;;;;;;5145404;27;20653;-85
2022/05/01 00:45:00;;;;;;;27.67;25.47;;;10.80;99.90;;;;;;5139805;27;20648;-86
2022/05/01 00:47:27;;;;;;;27.63;25.07;;;10.70;99.90;;;;;;5136605;27;20614;-86
2022/05/01 00:49:54;;;;;;;29.70;27.07;;;11.00;99.90;;;;;;5139567;27;20649;-86
2022/05/01 00:52:23;;;;;;;31.87;28.87;;;10.50;99.90;;;;;;5142563;27;21033;-86
2022/05/01 00:54:49;;;;;;;32.70;29.90;;;10.50;99.90;;;;;;5136485;27;20619;-86
2022/05/01 00:57:17;;;;;;;30.20;27.60;;;10.60;99.90;;;;;;5148803;27;20675;-87
2022/05/01 00:59:46;;;;;;;30.50;27.83;;;10.50;99.90;;;;;;5140924;27;21006;-86
2022/05/01 01:02:14;;;;;;;30.63;27.83;;;10.80;99.90;;;;;;5141476;27;21049;-86
2022/05/01 01:04:41;;;;;;;29.83;27.13;;;10.30;99.90;;;;;;5142041;27;20626;-86
2022/05/01 01:07:08;;;;;;;32.10;29.03;;;10.80;99.90;;;;;;5144913;27;20626;-86
2022/05/01 01:09:36;;;;;;;30.20;27.33;;;10.40;99.90;;;;;;5137783;27;20654;-87
2022/05/01 01:14:48;;;;;;;34.37;31.40;;;10.80;99.90;;;;;;5141054;27;20601;-87
2022/05/01 01:17:16;;;;;;;33.80;30.43;;;10.80;99.90;;;;;;5131733;27;20641;-87
2022/05/01 01:19:43;;;;;;;32.70;29.73;;;10.30;99.90;;;;;;5139943;27;21254;-88
2022/05/01 01:22:11;;;;;;;32.93;30.00;;;10.60;99.90;;;;;;5143793;27;20676;-87
2022/05/01 01:24:41;;;;;;;33.90;30.60;;;10.70;99.90;;;;;;5141525;27;20630;-87
2022/05/01 01:27:08;;;;;;;32.77;29.57;;;10.50;99.90;;;;;;5142713;27;20617;-87
2022/05/01 01:32:20;;;;;;;30.60;28.00;;;10.70;99.90;;;;;;5144749;27;20689;-87
2022/05/01 01:34:50;;;;;;;33.23;30.00;;;10.30;99.90;;;;;;5144800;27;20629;-87
2022/05/01 01:37:20;;;;;;;34.27;31.20;;;10.70;99.90;;;;;;5138648;27;20678;-87
2022/05/01 01:39:48;;;;;;;32.67;29.87;;;10.40;99.90;;;;;;5141337;27;20656;-87
2022/05/01 01:42:16;;;;;;;33.60;30.53;;;10.20;99.90;;;;;;5143222;27;20657;-84
2022/05/01 01:44:42;;;;;;;33.20;29.87;;;10.30;99.90;;;;;;5140601;27;20633;-85
2022/05/01 01:47:13;;;;;;;32.00;29.20;;;10.30;99.90;;;;;;5136295;27;21093;-87
2022/05/01 01:49:40;;;;;;;33.77;30.77;;;10.50;99.90;;;;;;5136816;27;20675;-85
2022/05/01 01:52:07;;;;;;;34.20;31.13;;;10.60;99.90;;;;;;5137478;27;20636;-85
2022/05/01 01:54:35;;;;;;;31.33;28.70;;;10.50;99.90;;;;;;5141108;27;20617;-85
2022/05/01 01:57:02;;;;;;;34.67;31.33;;;10.40;99.90;;;;;;5140368;27;20630;-85
2022/05/01 01:59:28;;;;;;;33.53;30.40;;;10.70;99.90;;;;;;5146648;27;20608;-85
2022/05/01 02:01:55;;;;;;;32.87;29.87;;;10.30;99.90;;;;;;5137778;27;20689;-85
2022/05/01 02:04:23;;;;;;;34.97;31.50;;;10.80;99.90;;;;;;5138858;27;21267;-85
2022/05/01 02:06:50;;;;;;;35.07;32.00;;;10.60;99.90;;;;;;5143288;27;20621;-85
2022/05/01 02:09:18;;;;;;;35.20;31.40;;;10.40;99.90;;;;;;5140278;27;20626;-85
2022/05/01 02:11:46;;;;;;;33.63;30.50;;;10.30;99.90;;;;;;5147262;27;21163;-84
2022/05/01 02:14:14;;;;;;;34.30;30.67;;;10.40;99.90;;;;;;5137641;27;20624;-85
2022/05/01 02:16:41;;;;;;;33.40;30.40;;;10.50;99.90;;;;;;5137193;27;20625;-85
2022/05/01 02:19:09;;;;;;;37.10;33.53;;;10.40;99.90;;;;;;5132728;27;20667;-84
2022/05/01 02:21:35;;;;;;;34.00;30.97;;;10.60;99.90;;;;;;5140040;27;20676;-85
2022/05/01 02:24:03;;;;;;;36.30;32.83;;;10.60;99.90;;;;;;5141167;27;20964;-87
2022/05/01 02:26:30;;;;;;;36.70;33.40;;;10.70;99.90;;;;;;5139813;27;20670;-88
2022/05/01 02:28:59;;;;;;;38.00;34.17;;;10.50;99.90;;;;;;5141083;27;20670;-87
2022/05/01 02:31:26;;;;;;;34.97;31.87;;;10.60;99.90;;;;;;5141021;27;20706;-88
2022/05/01 02:33:53;;;;;;;37.20;33.60;;;10.70;99.90;;;;;;5142459;27;20613;-87
2022/05/01 02:36:20;;;;;;;35.73;32.13;;;10.70;99.90;;;;;;5140407;27;20621;-88
2022/05/01 02:38:47;;;;;;;37.87;34.30;;;10.60;99.90;;;;;;5143971;27;20629;-87
2022/05/01 02:41:15;;;;;;;37.50;33.90;;;10.40;99.90;;;;;;5144351;27;20663;-87
2022/05/01 02:43:41;;;;;;;35.03;31.93;;;10.20;99.90;;;;;;5136511;27;20757;-87
2022/05/01 02:46:09;;;;;;;34.50;31.37;;;10.20;99.90;;;;;;5144840;27;20625;-88
2022/05/01 02:48:36;;;;;;;35.00;32.00;;;10.30;99.90;;;;;;5145012;27;21044;-87
2022/05/01 02:51:04;;;;;;;34.17;30.80;;;10.10;99.90;;;;;;5146191;27;20651;-88
2022/05/01 02:53:32;;;;;;;35.07;31.77;;;10.60;99.90;;;;;;5144952;27;20681;-87
2022/05/01 02:56:00;;;;;;;33.90;30.83;;;10.10;99.90;;;;;;5142970;27;20609;-86
2022/05/01 02:58:27;;;;;;;34.47;31.17;;;9.90;99.90;;;;;;5146045;27;21042;-86
2022/05/01 03:00:54;;;;;;;35.20;31.87;;;10.50;99.90;;;;;;5143958;27;20661;-87
2022/05/01 03:03:23;;;;;;;33.73;30.73;;;10.50;99.90;;;;;;5148991;27;20772;-86
2022/05/01 03:05:51;;;;;;;32.70;29.37;;;10.50;99.90;;;;;;5154421;27;20617;-86
2022/05/01 03:08:17;;;;;;;35.13;31.43;;;10.10;99.90;;;;;;5147290;27;20631;-86
2022/05/01 03:10:44;;;;;;;32.97;29.97;;;10.00;99.90;;;;;;5141457;27;20648;-87
2022/05/01 03:13:11;;;;;;;34.30;31.13;;;10.30;99.90;;;;;;5151984;27;20617;-86
2022/05/01 03:15:38;;;;;;;36.00;32.83;;;10.00;99.90;;;;;;5140427;27;20718;-87
2022/05/01 03:23:35;;;;;;;33.17;29.90;;;10.40;99.90;;;;;;5141985;27;21011;-87
2022/05/01 03:26:02;;;;;;;35.13;31.93;;;10.20;99.90;;;;;;5145595;27;20973;-87
2022/05/01 03:28:29;;;;;;;35.23;31.73;;;10.00;99.90;;;;;;5144322;27;20621;-86
2022/05/01 03:30:56;;;;;;;37.00;31.97;;;10.40;99.90;;;;;;5136557;27;20652;-87
2022/05/01 03:33:26;;;;;;;34.03;30.60;;;10.10;99.90;;;;;;5146248;27;20613;-87
2022/05/01 03:35:55;;;;;;;33.97;30.60;;;10.40;99.90;;;;;;5141878;27;20658;-87
2022/05/01 03:38:22;;;;;;;34.90;31.70;;;10.50;99.90;;;;;;5143912;27;20610;-87
2022/05/01 03:40:49;;;;;;;37.50;33.70;;;10.50;99.90;;;;;;5141231;27;20657;-87
2022/05/01 03:43:17;;;;;;;35.87;32.50;;;10.10;99.90;;;;;;5146782;27;20664;-84
2022/05/01 03:45:44;;;;;;;33.03;29.97;;;10.00;99.90;;;;;;5137108;27;21052;-87
2022/05/01 03:48:11;;;;;;;33.63;30.43;;;10.50;99.90;;;;;;5140881;27;20648;-87
2022/05/01 03:50:38;;;;;;;34.20;31.00;;;10.50;99.90;;;;;;5140252;27;20664;-87
2022/05/01 03:53:06;;;;;;;35.90;32.23;;;10.20;99.90;;;;;;5137702;27;20610;-86
2022/05/01 03:55:36;;;;;;;37.07;33.47;;;10.40;99.90;;;;;;5144781;27;20714;-87
2022/05/01 03:58:03;;;;;;;35.53;32.10;;;10.20;99.90;;;;;;5137482;27;20670;-87
2022/05/01 04:00:31;;;;;;;38.53;34.93;;;10.30;99.90;;;;;;5137743;27;20653;-87
2022/05/01 04:02:58;;;;;;;36.23;32.80;;;10.40;99.90;;;;;;5138666;27;20668;-87
2022/05/01 04:05:34;;;;;;;36.33;33.00;;;10.00;99.90;;;;;;5144558;27;20653;-87
2022/05/01 04:08:01;;;;;;;36.23;32.60;;;10.20;99.90;;;;;;5141421;27;20625;-88
2022/05/01 04:10:29;;;;;;;38.40;34.47;;;9.90;99.90;;;;;;5149055;27;20649;-88
2022/05/01 04:12:56;;;;;;;35.70;32.10;;;9.90;99.90;;;;;;5140376;27;20632;-87
2022/05/01 04:15:24;;;;;;;37.70;34.20;;;10.40;99.90;;;;;;5148685;27;20730;-88
2022/05/01 04:17:51;;;;;;;38.17;34.07;;;10.50;99.90;;;;;;5134110;27;20612;-85
2022/05/01 04:20:18;;;;;;;35.77;32.10;;;9.80;99.90;;;;;;5145036;27;20680;-86
2022/05/01 04:22:46;;;;;;;35.97;32.47;;;10.00;99.90;;;;;;5145767;27;22104;-85
2022/05/01 04:25:18;;;;;;;36.83;33.23;;;10.10;99.90;;;;;;5145585;27;21206;-85
2022/05/01 04:27:48;;;;;;;38.57;34.90;;;10.40;99.90;;;;;;5141949;27;20621;-85
2022/05/01 04:30:16;;;;;;;36.13;32.63;;;10.60;99.90;;;;;;5144321;27;20653;-86
2022/05/01 04:32:51;;;;;;;34.50;31.20;;;10.10;99.90;;;;;;5146407;27;20609;-85
2022/05/01 04:35:28;;;;;;;36.10;32.63;;;10.60;99.90;;;;;;5143804;27;20694;-86
2022/05/01 04:38:00;;;;;;;37.70;34.00;;;10.00;99.90;;;;;;5145490;27;21348;-86
2022/05/01 04:40:28;;;;;;;35.63;32.33;;;10.20;99.90;;;;;;5145497;27;20645;-85
2022/05/01 04:43:03;;;;;;;37.03;33.47;;;10.50;99.90;;;;;;5144436;27;20649;-86
2022/05/01 04:45:30;;;;;;;34.87;31.93;;;10.50;99.90;;;;;;5145811;27;20613;-86
2022/05/01 04:47:57;;;;;;;35.10;31.90;;;10.10;99.90;;;;;;5141790;27;20725;-86
2022/05/01 04:50:24;;;;;;;37.30;33.77;;;10.00;99.90;;;;;;5146855;27;21120;-86
2022/05/01 04:52:51;;;;;;;36.47;33.17;;;10.40;99.90;;;;;;5136004;27;20620;-86
2022/05/01 04:55:18;;;;;;;34.87;31.53;;;10.50;99.90;;;;;;5144420;27;20609;-86
2022/05/01 04:57:49;;;;;;;37.40;33.87;;;10.10;99.90;;;;;;5138871;27;20630;-87
2022/05/01 05:00:25;;;;;;;35.47;31.97;;;10.50;99.90;;;;;;5145468;27;20681;-87
2022/05/01 05:02:55;;;;;;;36.67;33.07;;;10.40;99.90;;;;;;5143743;27;20661;-86
2022/05/01 05:05:23;;;;;;;35.40;31.87;;;10.60;99.90;;;;;;5143394;27;20668;-86
2022/05/01 05:07:50;;;;;;;33.27;29.97;;;10.50;99.90;;;;;;5148518;27;20630;-88
2022/05/01 05:10:17;;;;;;;34.77;31.30;;;10.20;99.90;;;;;;5141097;27;20648;-86
2022/05/01 05:12:45;;;;;;;36.07;32.40;;;10.50;99.90;;;;;;5141813;27;20700;-86
2022/05/01 05:15:15;;;;;;;33.67;30.27;;;10.70;99.90;;;;;;5143607;27;20312;-86
2022/05/01 05:17:44;;;;;;;35.17;31.90;;;10.10;99.90;;;;;;5135754;27;20906;-86
2022/05/01 05:20:12;;;;;;;35.43;31.90;;;10.20;99.90;;;;;;5139875;27;20620;-86
2022/05/01 05:22:41;;;;;;;34.30;31.30;;;10.40;99.90;;;;;;5143467;27;21049;-86
2022/05/01 05:25:11;;;;;;;34.67;31.33;;;10.60;99.90;;;;;;5139336;27;21172;-86
2022/05/01 05:27:38;;;;;;;33.70;30.60;;;10.50;99.90;;;;;;5139438;27;20653;-85
2022/05/01 05:30:06;;;;;;;33.27;30.27;;;10.40;99.90;;;;;;5143197;27;20616;-85
2022/05/01 05:32:33;;;;;;;33.77;30.80;;;10.50;99.90;;;;;;5136882;27;20605;-87
2022/05/01 05:35:01;;;;;;;34.93;31.67;;;10.10;99.90;;;;;;5142470;27;20613;-87
2022/05/01 05:37:27;;;;;;;31.90;28.90;;;10.60;99.90;;;;;;5140972;27;20683;-86
2022/05/01 05:39:54;;;;;;;34.37;31.20;;;10.90;99.90;;;;;;5137615;27;20610;-86
2022/05/01 05:42:22;;;;;;;31.67;28.77;;;10.80;99.90;;;;;;5142737;27;20952;-86
2022/05/01 05:44:49;;;;;;;31.87;29.00;;;10.20;99.90;;;;;;5140757;27;20959;-86
2022/05/01 05:47:15;;;;;;;32.50;29.60;;;10.50;99.90;;;;;;5135432;27;20660;-86
2022/05/01 05:49:42;;;;;;;33.07;30.17;;;10.50;99.90;;;;;;5139262;27;21301;-86
2022/05/01 05:52:10;;;;;;;32.10;29.40;;;10.50;99.90;;;;;;5136364;27;20614;-86
2022/05/01 05:54:39;;;;;;;33.70;30.70;;;10.70;99.90;;;;;;5141974;27;20588;-87
2022/05/01 05:57:06;;;;;;;32.50;29.50;;;10.40;99.90;;;;;;5141474;27;20649;-87
2022/05/01 05:59:32;;;;;;;33.90;30.57;;;10.60;99.90;;;;;;5130218;27;20622;-86
2022/05/01 06:02:00;;;;;;;32.93;29.90;;;10.70;99.90;;;;;;5150003;27;20628;-87
2022/05/01 06:04:27;;;;;;;33.97;30.80;;;10.70;99.90;;;;;;5135301;27;20661;-87
2022/05/01 06:06:54;;;;;;;33.57;30.57;;;10.30;99.90;;;;;;5142409;27;20632;-85
2022/05/01 06:09:22;;;;;;;34.33;31.10;;;10.70;99.90;;;;;;5134571;27;20662;-85
2022/05/01 06:11:49;;;;;;;34.00;30.90;;;10.60;99.90;;;;;;5141585;27;20658;-86
2022/05/01 06:14:16;;;;;;;34.03;31.03;;;10.50;99.90;;;;;;5136442;27;20652;-86
2022/05/01 06:16:42;;;;;;;34.10;30.90;;;10.80;99.90;;;;;;5139048;27;21245;-87
2022/05/01 06:19:09;;;;;;;35.30;31.93;;;10.90;99.90;;;;;;5136507;27;20629;-86
2022/05/01 06:21:36;;;;;;;34.67;31.37;;;10.50;99.90;;;;;;5144038;27;20616;-86
2022/05/01 06:24:02;;;;;;;34.40;31.20;;;10.90;99.90;;;;;;5142813;27;21237;-86
2022/05/01 06:26:31;;;;;;;32.03;29.03;;;11.00;99.90;;;;;;5148396;27;20653;-86
2022/05/01 06:28:59;;;;;;;33.67;30.53;;;10.60;99.90;;;;;;5149389;27;20633;-86
2022/05/01 06:31:27;;;;;;;33.90;30.70;;;10.70;99.90;;;;;;5142522;27;20639;-86
2022/05/01 06:33:54;;;;;;;33.63;30.63;;;10.90;99.90;;;;;;5150732;27;20624;-86
2022/05/01 06:36:21;;;;;;;34.83;31.40;;;11.20;99.90;;;;;;5145536;27;20669;-85
2022/05/01 06:38:48;;;;;;;31.20;28.60;;;11.20;99.90;;;;;;5146896;27;20617;-86
2022/05/01 06:41:15;;;;;;;33.47;30.57;;;10.90;99.90;;;;;;5145962;27;20578;-87
2022/05/01 06:43:43;;;;;;;33.07;30.07;;;10.90;99.90;;;;;;5146176;27;20668;-86
2022/05/01 06:46:10;;;;;;;34.17;30.97;;;11.10;99.90;;;;;;5144423;27;20660;-87
2022/05/01 06:48:37;;;;;;;31.70;28.73;;;11.10;99.90;;;;;;5146365;27;20629;-86
2022/05/01 06:51:04;;;;;;;33.90;30.40;;;11.50;99.90;;;;;;5145857;27;20629;-87
2022/05/01 06:53:31;;;;;;;31.83;28.93;;;11.60;99.90;;;;;;5145534;27;20633;-86
2022/05/01 06:55:58;;;;;;;33.57;30.37;;;11.70;99.90;;;;;;5150177;27;20630;-87
2022/05/01 06:58:25;;;;;;;32.03;29.03;;;11.20;99.90;;;;;;5147249;27;20837;-87
2022/05/01 07:00:54;;;;;;;31.40;28.43;;;11.70;99.90;;;;;;5144500;27;20638;-85
2022/05/01 07:03:22;;;;;;;31.87;28.90;;;11.50;99.90;;;;;;5145556;27;20656;-85
2022/05/01 07:05:48;;;;;;;33.87;30.27;;;11.60;99.90;;;;;;5153960;27;20621;-86
2022/05/01 07:08:15;;;;;;;29.87;27.07;;;11.80;99.90;;;;;;5144987;27;20616;-86
2022/05/01 07:10:42;;;;;;;29.10;26.43;;;11.50;99.90;;;;;;5137875;27;20669;-86
2022/05/01 07:13:10;;;;;;;30.00;27.47;;;11.50;99.90;;;;;;5143599;27;20761;-85
2022/05/01 07:15:37;;;;;;;30.00;27.40;;;11.70;99.90;;;;;;5145097;27;20621;-86
2022/05/01 07:18:05;;;;;;;28.97;26.37;;;11.60;99.90;;;;;;5138125;27;20649;-87
2022/05/01 07:20:34;;;;;;;27.50;25.00;;;12.30;99.90;;;;;;5138124;27;20642;-87
2022/05/01 07:23:01;;;;;;;28.20;25.50;;;12.10;99.90;;;;;;5140601;27;20710;-88
2022/05/01 07:25:28;;;;;;;28.80;26.07;;;11.90;99.90;;;;;;5137924;27;21203;-88
2022/05/01 07:27:58;;;;;;;27.40;24.80;;;12.10;99.90;;;;;;5136073;27;21222;-88
2022/05/01 07:30:24;;;;;;;26.70;24.07;;;12.20;99.90;;;;;;5139986;27;20654;-89
2022/05/01 07:32:52;;;;;;;26.73;23.33;;;12.20;99.90;;;;;;5146030;27;20693;-88
2022/05/01 07:35:20;;;;;;;30.00;27.10;;;12.10;99.90;;;;;;5141852;27;20966;-88
2022/05/01 07:37:47;;;;;;;27.50;24.83;;;12.40;99.90;;;;;;5145040;27;20613;-88
2022/05/01 07:40:14;;;;;;;27.23;24.13;;;12.30;99.90;;;;;;5137223;27;20688;-88
2022/05/01 07:42:41;;;;;;;26.67;24.33;;;12.00;99.90;;;;;;5139684;27;20728;-88
2022/05/01 07:45:09;;;;;;;26.83;24.33;;;12.40;99.90;;;;;;5141978;27;20661;-88
2022/05/01 07:47:35;;;;;;;28.27;25.57;;;12.50;99.90;;;;;;5145210;27;20694;-87
2022/05/01 07:50:06;;;;;;;26.43;23.87;;;12.40;99.90;;;;;;5139453;27;20672;-88
2022/05/01 07:52:34;;;;;;;28.70;26.03;;;12.50;99.90;;;;;;5140164;27;20708;-88
2022/05/01 07:55:01;;;;;;;26.70;24.20;;;12.60;99.90;;;;;;5143407;27;20609;-88
2022/05/01 07:57:28;;;;;;;24.13;22.03;;;12.70;99.90;;;;;;5146499;27;21044;-88
2022/05/01 07:59:55;;;;;;;26.33;23.80;;;12.70;99.90;;;;;;5146270;27;20629;-88
2022/05/01 08:02:22;;;;;;;25.40;22.80;;;12.60;99.90;;;;;;5142136;27;20643;-88
2022/05/01 08:04:48;;;;;;;25.53;22.90;;;12.70;99.90;;;;;;5140836;27;20763;-87
2022/05/01 08:07:16;;;;;;;24.17;21.97;;;12.80;99.90;;;;;;5139505;27;20621;-87
2022/05/01 08:09:44;;;;;;;26.50;23.90;;;12.70;99.90;;;;;;5139950;27;20653;-87
2022/05/01 08:12:11;;;;;;;26.40;22.97;;;12.70;99.90;;;;;;5143977;27;20611;-87
2022/05/01 08:14:41;;;;;;;27.07;24.57;;;12.70;99.90;;;;;;5143051;27;20628;-88
2022/05/01 08:17:08;;;;;;;25.40;23.20;;;12.70;99.90;;;;;;5143918;27;20637;-87
2022/05/01 08:22:19;;;;;;;25.27;22.73;;;12.60;99.90;;;;;;5144056;27;20621;-87
2022/05/01 08:24:47;;;;;;;24.40;22.20;;;12.40;99.90;;;;;;5142634;27;20676;-87
2022/05/01 08:27:14;;;;;;;24.67;22.57;;;12.80;99.90;;;;;;5139269;27;20617;-87
2022/05/01 08:29:41;;;;;;;24.03;21.73;;;12.80;99.90;;;;;;5141216;27;20654;-87
2022/05/01 08:32:08;;;;;;;26.83;24.43;;;12.70;99.90;;;;;;5138105;27;20606;-87
2022/05/01 08:34:36;;;;;;;22.00;20.07;;;12.30;99.90;;;;;;5142186;27;20626;-88
2022/05/01 08:37:03;;;;;;;22.47;20.43;;;12.30;99.90;;;;;;5137073;27;20628;-88
2022/05/01 08:39:29;;;;;;;22.27;20.27;;;12.70;99.90;;;;;;5143863;27;20648;-87
2022/05/01 08:41:58;;;;;;;21.90;19.90;;;12.80;99.90;;;;;;5141011;27;20629;-87
2022/05/01 08:44:32;;;;;;;20.80;18.90;;;12.40;99.90;;;;;;5141374;27;20742;-87
2022/05/01 08:47:23;;;;;;;21.03;19.17;;;12.90;99.90;;;;;;5141763;27;21163;-87
2022/05/01 08:49:56;;;;;;;21.03;19.17;;;12.90;99.90;;;;;;5134189;27;21307;-87
2022/05/01 08:52:24;;;;;;;22.13;20.07;;;12.70;99.90;;;;;;5138309;27;20884;-88
2022/05/01 08:54:51;;;;;;;22.20;20.07;;;12.80;99.90;;;;;;5141083;27;20598;-88
2022/05/01 08:57:21;;;;;;;21.23;19.23;;;12.80;99.90;;;;;;5142338;27;20622;-87
2022/05/01 08:59:53;;;;;;;21.83;19.83;;;12.80;99.90;;;;;;5137431;27;20670;-88
2022/05/01 09:02:20;;;;;;;20.57;18.73;;;13.00;99.90;;;;;;5136963;27;21195;-89
2022/05/01 09:04:47;;;;;;;22.10;20.00;;;12.60;99.90;;;;;;5137826;27;20662;-89
2022/05/01 09:07:14;;;;;;;22.57;20.47;;;13.00;99.90;;;;;;5141576;27;20641;-87
2022/05/01 09:09:41;;;;;;;21.70;19.73;;;13.10;99.90;;;;;;5139028;27;20629;-88
2022/05/01 09:14:54;;;;;;;20.70;18.90;;;13.30;99.90;;;;;;5146422;27;20584;-88
2022/05/01 09:17:23;;;;;;;20.63;18.83;;;13.40;99.90;;;;;;5135453;27;20625;-87
2022/05/01 09:19:53;;;;;;;19.10;17.40;;;13.50;99.90;;;;;;5144864;27;21226;-87
2022/05/01 09:22:22;;;;;;;19.77;18.03;;;13.60;99.90;;;;;;5140747;27;20623;-88
2022/05/01 09:24:53;;;;;;;19.03;17.33;;;13.70;99.90;;;;;;5145321;27;20713;-88
2022/05/01 09:27:28;;;;;;;19.27;17.70;;;13.70;99.90;;;;;;5142945;27;20629;-88
2022/05/01 09:30:19;;;;;;;19.40;17.70;;;13.90;99.90;;;;;;5137372;27;20654;-88
2022/05/01 09:32:47;;;;;;;18.17;16.50;;;14.10;99.90;;;;;;5134149;27;20664;-89
2022/05/01 09:35:16;;;;;;;17.87;16.27;;;14.30;99.90;;;;;;5138748;27;20656;-88
2022/05/01 09:37:44;;;;;;;19.50;17.70;;;14.40;99.90;;;;;;5141956;27;20712;-88
2022/05/01 09:40:13;;;;;;;18.70;16.87;;;14.50;99.90;;;;;;5139261;27;20654;-87
2022/05/01 09:42:40;;;;;;;17.47;15.93;;;14.50;99.90;;;;;;5139800;27;20729;-88
2022/05/01 09:45:11;;;;;;;16.87;15.47;;;14.80;99.90;;;;;;5141659;27;20665;-88
2022/05/01 09:47:41;;;;;;;15.57;14.17;;;14.90;99.90;;;;;;5136612;27;20717;-88
2022/05/01 09:50:10;;;;;;;16.40;14.80;;;15.30;99.90;;;;;;5144488;27;21038;-87
2022/05/01 09:52:57;;;;;;;16.13;14.73;;;15.60;99.90;;;;;;5136242;27;20612;-87
2022/05/01 09:55:25;;;;;;;15.07;13.60;;;16.00;99.90;;;;;;5139645;27;20619;-87
2022/05/01 09:58:03;;;;;;;15.90;14.30;;;16.00;99.90;;;;;;5139700;27;20627;-86
2022/05/01 10:00:41;;;;;;;15.73;14.43;;;16.00;99.90;;;;;;5138730;27;21222;-88
2022/05/01 10:03:27;;;;;;;15.67;14.27;;;16.00;99.90;;;;;;5137050;27;20637;-88
2022/05/01 10:05:56;;;;;;;13.80;12.30;;;16.10;99.90;;;;;;5141273;27;21285;-88
2022/05/01 10:08:23;;;;;;;13.90;12.80;;;16.30;99.80;;;;;;5142848;27;20915;-88
2022/05/01 10:10:51;;;;;;;14.67;13.37;;;16.40;99.90;;;;;;5141738;27;20663;-88
2022/05/01 10:13:20;;;;;;;13.70;12.50;;;16.40;98.80;;;;;;5142770;27;20617;-88
2022/05/01 10:15:47;;;;;;;15.03;13.67;;;16.40;98.30;;;;;;5140923;27;20611;-88
2022/05/01 10:18:16;;;;;;;13.40;12.30;;;16.20;97.80;;;;;;5141249;27;20720;-88
2022/05/01 10:20:44;;;;;;;14.60;13.20;;;16.30;99.50;;;;;;5140403;27;20650;-87
2022/05/01 10:23:12;;;;;;;14.70;13.47;;;16.30;98.50;;;;;;5139488;27;20634;-87
2022/05/01 10:25:41;;;;;;;13.43;12.03;;;16.50;97.30;;;;;;5136942;27;21179;-87
2022/05/01 10:28:23;;;;;;;14.53;13.23;;;16.70;98.00;;;;;;5141193;27;20669;-87
2022/05/01 10:34:07;;;;;;;17.70;15.97;;;16.90;98.00;;;;;;5141954;27;20617;-88
2022/05/01 10:36:48;;;;;;;13.13;11.93;;;16.80;97.40;;;;;;5134925;27;20610;-88
2022/05/01 10:39:17;;;;;;;14.47;13.27;;;16.80;97.90;;;;;;5141255;27;20633;-87
2022/05/01 10:41:45;;;;;;;15.47;14.13;;;16.80;97.50;;;;;;5140561;27;20625;-87
2022/05/01 10:44:28;;;;;;;15.67;14.20;;;16.80;98.30;;;;;;5136114;27;20611;-87
2022/05/01 10:46:55;;;;;;;12.87;11.70;;;16.80;97.40;;;;;;5119795;27;21021;-87
2022/05/01 10:49:36;;;;;;;15.67;14.17;;;16.70;97.00;;;;;;5138462;27;20659;-87
2022/05/01 10:52:21;;;;;;;13.77;12.40;;;16.80;96.40;;;;;;5134320;27;20606;-88
2022/05/01 10:54:54;;;;;;;13.73;12.57;;;16.90;96.40;;;;;;5137255;27;20618;-88
2022/05/01 10:57:24;;;;;;;14.07;12.87;;;17.20;96.00;;;;;;5142974;27;20625;-87
2022/05/01 11:00:04;;;;;;;12.97;11.67;;;17.40;94.70;;;;;;5143736;27;20641;-88
2022/05/01 11:02:35;;;;;;;13.00;12.00;;;17.50;95.40;;;;;;5133920;27;21096;-88
2022/05/01 11:05:02;;;;;;;12.70;11.70;;;17.80;93.90;;;;;;5134346;27;21138;-87
2022/05/01 11:07:31;;;;;;;15.47;13.97;;;18.20;93.30;;;;;;5141405;27;20753;-87
2022/05/01 11:10:00;;;;;;;12.77;11.50;;;18.10;93.00;;;;;;5134723;27;20658;-88
2022/05/01 11:12:30;;;;;;;14.37;13.17;;;18.10;92.00;;;;;;5144312;27;20941;-87
2022/05/01 11:14:59;;;;;;;12.13;11.13;;;17.90;92.60;;;;;;5141984;27;20650;-88
2022/05/01 11:17:53;;;;;;;12.50;11.30;;;17.90;92.10;;;;;;5134540;27;20729;-87
2022/05/01 11:20:32;;;;;;;12.47;11.37;;;18.20;92.80;;;;;;5145552;27;20652;-88
2022/05/01 11:23:28;;;;;;;12.60;11.40;;;18.20;91.20;;;;;;5136937;27;21134;-89
2022/05/01 11:26:17;;;;;;;11.00;10.20;;;18.10;91.50;;;;;;5138518;27;20666;-89
2022/05/01 11:28:45;;;;;;;10.90;10.00;;;18.20;93.70;;;;;;5147449;27;20988;-89
2022/05/01 11:31:47;;;;;;;13.10;11.87;;;18.40;94.30;;;;;;5141048;27;20598;-89
2022/05/01 11:34:51;;;;;;;11.70;10.13;;;18.50;93.30;;;;;;5146239;27;20608;-89
2022/05/01 11:37:19;;;;;;;11.63;10.73;;;18.70;92.60;;;;;;5144106;27;20609;-89
2022/05/01 11:40:20;;;;;;;11.93;10.53;;;18.70;92.20;;;;;;5148045;27;20650;-87
2022/05/01 11:42:49;;;;;;;12.27;11.13;;;18.60;92.40;;;;;;5143831;27;20628;-89
2022/05/01 11:45:18;;;;;;;11.33;10.27;;;18.50;91.90;;;;;;5149482;27;20662;-88
2022/05/01 11:47:49;;;;;;;13.00;11.70;;;18.50;92.40;;;;;;5143544;27;20722;-89
2022/05/01 11:50:21;;;;;;;13.67;12.47;;;18.60;92.40;;;;;;5141592;27;20679;-89
2022/05/01 11:52:54;;;;;;;11.40;10.50;;;18.50;92.50;;;;;;5135911;27;20588;-89
2022/05/01 12:02:24;;;;;;;12.13;11.10;;;18.50;92.80;;;;;;5141217;27;20753;-89
2022/05/01 12:03:39;;;;;;;11.17;10.17;;;18.50;91.60;;;;;;5136682;27;21253;-89
2022/05/01 12:06:06;;;;;;;11.27;10.33;;;18.70;92.10;;;;;;5140540;27;20987;-89
2022/05/01 12:08:33;;;;;;;11.57;10.53;;;18.60;91.30;;;;;;5143545;27;20678;-89
2022/05/01 12:11:00;;;;;;;12.70;11.80;;;18.70;91.10;;;;;;5140861;27;20641;-90
2022/05/01 12:13:28;;;;;;;11.50;10.50;;;18.70;91.10;;;;;;5142672;27;20625;-88
2022/05/01 12:15:56;;;;;;;13.03;11.83;;;18.60;91.10;;;;;;5140752;27;20613;-88
2022/05/01 12:18:24;;;;;;;11.10;9.73;;;18.60;90.80;;;;;;5135926;27;20617;-88
2022/05/01 12:20:51;;;;;;;13.00;11.80;;;18.60;91.30;;;;;;5140283;27;20645;-88
2022/05/01 12:23:19;;;;;;;11.37;10.40;;;18.70;91.30;;;;;;5141782;27;20652;-88
2022/05/01 12:25:49;;;;;;;11.77;10.57;;;19.00;90.60;;;;;;5138857;27;20677;-88
2022/05/01 12:28:18;;;;;;;11.10;10.10;;;19.10;90.20;;;;;;5139038;27;20629;-89
2022/05/01 12:30:50;;;;;;;11.87;10.67;;;19.20;89.60;;;;;;5141131;27;23049;-89
2022/05/01 12:33:22;;;;;;;10.90;9.80;;;19.30;89.40;;;;;;5144540;27;20642;-89
2022/05/01 12:35:58;;;;;;;12.07;10.77;;;19.60;88.70;;;;;;5144185;27;20633;-89
2022/05/01 12:38:27;;;;;;;10.87;9.97;;;20.00;87.70;;;;;;5146592;27;21204;-88
2022/05/01 12:43:53;;;;;;;11.03;10.07;;;20.80;83.60;;;;;;5143434;27;20600;-89
2022/05/01 12:46:29;;;;;;;10.13;9.33;;;21.10;83.00;;;;;;5139019;27;20712;-88
2022/05/01 12:48:58;;;;;;;9.60;8.80;;;21.50;81.60;;;;;;5140101;27;20644;-88
2022/05/01 12:51:35;;;;;;;10.53;9.70;;;21.50;80.40;;;;;;5145216;27;20618;-88
2022/05/01 12:54:10;;;;;;;11.53;10.50;;;21.50;79.80;;;;;;5139508;27;20621;-88
2022/05/01 12:56:37;;;;;;;11.90;10.73;;;22.00;78.60;;;;;;5140425;27;21024;-89
2022/05/01 12:59:23;;;;;;;11.10;10.17;;;22.20;77.20;;;;;;5139151;27;20746;-88
2022/05/01 13:01:52;;;;;;;11.50;10.50;;;22.60;76.30;;;;;;5137039;27;21061;-87
2022/05/01 13:04:24;;;;;;;10.67;9.87;;;22.90;75.90;;;;;;5137809;27;20630;-89
2022/05/01 13:06:52;;;;;;;10.43;9.63;;;23.10;75.10;;;;;;5140723;27;20657;-88
2022/05/01 13:09:19;;;;;;;9.83;8.77;;;23.30;74.50;;;;;;5142590;27;20651;-89